Time;durP1;ratioP1;P1;durP2;ratioP2;P2;SDS_P1;SDS_P2;PMS_P1;PMS_P2;Temp;Humidity;BMP_temperature;BMP_pressure;BME280_temperature;BME280_humidity;BME280_pressure;Samples;Min_cycle;Max_cycle;Signal;HPM_P1;HPM_P2
2023/04/22 00:00:05;;;;;;;2.95;0.60;;;;;;;14.77;47.30;100619.13;5094266;27;20476;-67
2023/04/22 00:02:31;;;;;;;0.52;0.45;;;;;;;14.69;47.41;100625.69;5102367;28;20065;-66
2023/04/22 00:04:56;;;;;;;1.10;0.65;;;;;;;14.76;47.51;100628.44;5105768;28;20059;-65
2023/04/22 00:07:22;;;;;;;0.52;0.45;;;;;;;14.68;47.79;100617.94;5096076;28;20040;-66
2023/04/22 00:09:48;;;;;;;0.20;0.20;;;;;;;14.65;47.71;100611.38;5107291;28;20114;-66
2023/04/22 00:12:13;;;;;;;0.30;0.30;;;;;;;14.69;47.59;100604.00;5104961;28;20024;-67
2023/04/22 00:14:39;;;;;;;0.70;0.45;;;;;;;14.68;47.91;100601.69;5103080;28;20047;-66
2023/04/22 00:17:08;;;;;;;0.32;0.30;;;;;;;14.67;47.76;100611.78;5109577;28;20041;-66
2023/04/22 00:19:36;;;;;;;1.58;0.35;;;;;;;14.67;47.62;100587.38;5107703;28;20031;-66
2023/04/22 00:22:02;;;;;;;0.70;0.70;;;;;;;14.61;47.80;100598.97;5107862;28;20779;-66
2023/04/22 00:24:28;;;;;;;0.88;0.60;;;;;;;14.69;47.84;100585.03;5104659;28;20112;-66
2023/04/22 00:26:54;;;;;;;0.43;0.32;;;;;;;14.64;48.08;100598.97;5098410;28;20336;-66
2023/04/22 00:29:19;;;;;;;0.70;0.70;;;;;;;14.49;48.16;100581.13;5101873;28;20032;-67
2023/04/22 00:31:45;;;;;;;0.73;0.52;;;;;;;14.39;48.11;100571.03;5110758;28;20037;-67
2023/04/22 00:34:10;;;;;;;0.73;0.57;;;;;;;14.33;48.54;100576.03;5106117;27;20036;-67
2023/04/22 00:36:36;;;;;;;0.43;0.43;;;;;;;14.50;48.58;100571.81;5111491;28;20020;-67
2023/04/22 00:39:05;;;;;;;0.68;0.63;;;;;;;14.36;48.62;100561.72;5113827;28;20494;-66
2023/04/22 00:41:31;;;;;;;0.50;0.40;;;;;;;14.38;48.31;100561.34;5110949;28;20495;-66
2023/04/22 00:43:58;;;;;;;1.52;0.68;;;;;;;14.46;48.47;100571.03;5116328;27;20028;-67
2023/04/22 00:46:24;;;;;;;1.15;0.65;;;;;;;14.34;48.70;100569.44;5104164;28;20496;-67
2023/04/22 00:48:50;;;;;;;0.40;0.40;;;;;;;14.21;48.53;100562.78;5113259;28;20038;-66
2023/04/22 00:51:15;;;;;;;1.30;0.75;;;;;;;13.98;49.44;100562.31;5106221;28;20035;-66
2023/04/22 00:53:40;;;;;;;0.70;0.70;;;;;;;14.16;49.06;100574.00;5107016;28;20047;-66
2023/04/22 00:56:06;;;;;;;0.52;0.50;;;;;;;14.24;49.25;100556.63;5106473;28;20628;-66
2023/04/22 00:58:32;;;;;;;0.60;0.60;;;;;;;14.22;49.10;100556.22;5108600;28;20062;-67
2023/04/22 01:00:57;;;;;;;0.50;0.50;;;;;;;14.25;49.25;100558.16;5110122;27;20064;-67
2023/04/22 01:03:25;;;;;;;2.78;1.65;;;;;;;14.28;48.90;100552.03;5107497;27;20389;-67
2023/04/22 01:05:51;;;;;;;1.10;0.55;;;;;;;14.04;49.36;100549.16;5107087;28;20028;-67
2023/04/22 01:08:16;;;;;;;0.68;0.60;;;;;;;14.22;49.38;100556.22;5123589;27;20020;-66
2023/04/22 01:10:42;;;;;;;2.90;0.73;;;;;;;14.18;49.55;100555.44;5102184;28;20027;-67
2023/04/22 01:13:08;;;;;;;0.55;0.50;;;;;;;14.08;49.41;100553.47;5102933;27;20035;-66
2023/04/22 01:15:34;;;;;;;1.15;0.68;;;;;;;14.11;49.51;100552.69;5097928;28;20586;-67
2023/04/22 01:18:00;;;;;;;0.95;0.60;;;;;;;14.01;49.38;100541.81;5100915;28;20127;-67
2023/04/22 01:20:29;;;;;;;0.85;0.68;;;;;;;14.18;49.57;100546.53;5110161;28;20019;-66
2023/04/22 01:22:56;;;;;;;0.70;0.57;;;;;;;14.27;49.52;100536.91;5112103;28;20030;-66
2023/04/22 01:25:26;;;;;;;0.98;0.63;;;;;;;14.43;49.45;100547.41;5105154;27;20111;-66
2023/04/22 01:27:52;;;;;;;1.55;0.85;;;;;;;14.35;49.11;100546.63;5111905;28;20032;-67
2023/04/22 01:30:17;;;;;;;0.70;0.50;;;;;;;14.08;49.94;100544.56;5110733;28;20039;-66
2023/04/22 01:32:43;;;;;;;3.65;0.70;;;;;;;13.94;50.61;100537.13;5098567;28;20020;-66
2023/04/22 01:35:12;;;;;;;1.20;0.90;;;;;;;14.00;50.40;100541.03;5107794;28;20874;-66
2023/04/22 01:37:38;;;;;;;1.10;0.73;;;;;;;13.73;50.64;100528.91;5112619;28;20027;-66
2023/04/22 01:40:04;;;;;;;1.48;0.68;;;;;;;13.90;50.37;100536.34;5110638;28;20042;-66
2023/04/22 01:42:30;;;;;;;1.50;1.00;;;;;;;13.97;50.61;100528.28;5106313;28;20394;-66
2023/04/22 01:44:58;;;;;;;0.30;0.30;;;;;;;13.90;50.59;100524.75;5106684;28;20031;-67
2023/04/22 01:47:24;;;;;;;1.05;0.73;;;;;;;13.99;50.18;100531.38;5109180;28;20509;-66
2023/04/22 01:49:50;;;;;;;0.90;0.73;;;;;;;13.87;50.82;100520.09;5108466;28;20093;-66
2023/04/22 01:52:18;;;;;;;0.45;0.30;;;;;;;13.72;51.05;100524.66;5105211;28;20027;-66
2023/04/22 01:54:44;;;;;;;0.85;0.63;;;;;;;13.80;51.27;100520.81;5106736;28;20035;-67
2023/04/22 01:57:13;;;;;;;0.85;0.55;;;;;;;13.94;50.46;100515.47;5111030;28;20043;-66
2023/04/22 01:59:39;;;;;;;0.35;0.35;;;;;;;14.03;50.52;100515.13;5085975;28;20507;-67
2023/04/22 02:02:05;;;;;;;0.85;0.50;;;;;;;13.91;50.70;100505.44;5104563;28;20050;-66
2023/04/22 02:04:31;;;;;;;1.58;0.98;;;;;;;13.98;51.01;100515.50;5079368;22;20493;-69
2023/04/22 02:06:56;;;;;;;0.60;0.50;;;;;;;14.04;50.96;100506.63;5038780;28;20772;-69
2023/04/22 02:09:22;;;;;;;0.75;0.50;;;;;;;13.98;50.86;100502.72;5037640;28;20041;-69
2023/04/22 02:11:48;;;;;;;0.65;0.63;;;;;;;13.88;50.94;100508.13;5040782;28;20025;-69
2023/04/22 02:14:13;;;;;;;2.50;0.70;;;;;;;13.93;50.66;100503.13;5027521;28;20489;-69
2023/04/22 02:16:42;;;;;;;1.02;0.93;;;;;;;13.94;50.74;100499.22;5036486;28;20040;-69
2023/04/22 02:19:08;;;;;;;1.00;0.73;;;;;;;13.74;51.45;100489.88;5034882;28;20056;-69
2023/04/22 02:21:33;;;;;;;0.60;0.60;;;;;;;13.62;52.01;100490.19;5037105;28;20041;-69
2023/04/22 02:23:59;;;;;;;2.10;0.93;;;;;;;13.24;52.32;100488.06;5030268;28;20025;-69
2023/04/22 02:26:27;;;;;;;0.85;0.70;;;;;;;13.46;52.28;100490.50;5026611;28;20155;-69
2023/04/22 02:28:52;;;;;;;0.85;0.60;;;;;;;13.75;51.95;100491.41;5032779;28;20033;-68
2023/04/22 02:31:18;;;;;;;2.03;0.90;;;;;;;13.81;51.46;100489.13;5031606;28;20041;-69
2023/04/22 02:33:43;;;;;;;1.67;0.65;;;;;;;13.79;52.17;100483.31;5036859;28;20027;-68
2023/04/22 02:36:10;;;;;;;1.48;0.82;;;;;;;13.77;51.60;100480.22;5041913;28;20044;-68
2023/04/22 02:38:37;;;;;;;0.82;0.82;;;;;;;13.78;52.14;100487.94;5049856;28;20120;-68
2023/04/22 02:41:06;;;;;;;0.47;0.47;;;;;;;13.80;52.11;100474.81;5044386;28;20044;-69
2023/04/22 02:43:31;;;;;;;1.30;0.80;;;;;;;13.61;52.06;100477.81;5049626;28;20025;-68
2023/04/22 02:45:56;;;;;;;1.40;0.70;;;;;;;13.74;51.86;100470.16;5049480;28;20029;-68
2023/04/22 02:48:23;;;;;;;1.17;1.10;;;;;;;13.78;52.14;100465.53;5044757;28;20033;-68
2023/04/22 02:50:48;;;;;;;0.82;0.60;;;;;;;13.76;52.49;100457.81;5043047;28;20021;-68
2023/04/22 02:53:13;;;;;;;1.45;0.80;;;;;;;13.62;52.23;100463.16;5048537;28;20410;-68
2023/04/22 02:55:40;;;;;;;2.70;0.70;;;;;;;13.49;52.80;100451.09;5033977;28;20036;-68
2023/04/22 02:58:06;;;;;;;0.45;0.45;;;;;;;13.56;52.68;100453.84;5040843;28;20060;-68
2023/04/22 03:00:31;;;;;;;2.53;0.90;;;;;;;13.53;52.76;100449.16;5048383;28;20040;-68
2023/04/22 03:02:57;;;;;;;1.17;0.98;;;;;;;13.61;52.76;100448.03;5046355;28;20041;-68
2023/04/22 03:05:29;;;;;;;0.98;0.93;;;;;;;13.49;52.69;100438.31;5027529;28;20025;-68
2023/04/22 03:07:54;;;;;;;2.60;1.02;;;;;;;13.51;53.00;100446.84;5039003;28;20029;-68
2023/04/22 03:10:20;;;;;;;1.55;0.80;;;;;;;13.45;53.26;100444.91;5049740;28;20037;-68
2023/04/22 03:12:45;;;;;;;2.25;0.80;;;;;;;13.57;52.87;100434.50;5049219;28;20033;-68
2023/04/22 03:15:11;;;;;;;3.13;1.05;;;;;;;13.64;52.88;100444.59;5029931;28;20063;-68
2023/04/22 03:17:37;;;;;;;1.88;1.00;;;;;;;13.64;52.98;100438.41;5047431;28;20400;-68
2023/04/22 03:20:07;;;;;;;0.63;0.63;;;;;;;13.61;53.10;100434.50;5049137;28;20033;-68
2023/04/22 03:22:33;;;;;;;0.70;0.52;;;;;;;13.56;52.85;100426.78;5023769;28;20516;-68
2023/04/22 03:25:00;;;;;;;0.65;0.65;;;;;;;13.63;53.13;100432.22;5039371;28;20025;-68
2023/04/22 03:27:27;;;;;;;0.70;0.70;;;;;;;13.56;53.08;100426.78;5039032;28;20032;-68
2023/04/22 03:29:53;;;;;;;1.85;1.20;;;;;;;13.52;53.72;100432.19;5038202;28;20045;-68
2023/04/22 03:32:18;;;;;;;0.77;0.55;;;;;;;13.46;53.61;100430.19;5006817;28;20486;-68
2023/04/22 03:34:45;;;;;;;0.98;0.80;;;;;;;13.48;53.89;100417.06;5020195;28;20037;-68
2023/04/22 03:37:11;;;;;;;1.52;1.20;;;;;;;13.45;53.45;100410.47;5031091;28;20060;-68
2023/04/22 03:39:37;;;;;;;1.50;1.00;;;;;;;13.54;53.71;100419.03;5030925;28;20065;-68
2023/04/22 03:42:03;;;;;;;1.75;0.73;;;;;;;13.48;53.96;100423.25;5032414;28;20068;-68
2023/04/22 03:44:29;;;;;;;1.35;0.82;;;;;;;13.57;53.91;100418.28;5032795;28;20029;-68
2023/04/22 03:46:55;;;;;;;3.10;1.23;;;;;;;13.25;54.09;100419.28;5034360;28;20079;-68
2023/04/22 03:49:23;;;;;;;0.75;0.60;;;;;;;13.26;54.05;100426.22;5037865;28;20082;-68
2023/04/22 03:51:49;;;;;;;3.00;1.10;;;;;;;13.23;54.37;100418.88;5048973;28;20025;-68
2023/04/22 03:54:18;;;;;;;2.55;1.05;;;;;;;13.38;54.60;100421.28;5030358;28;20440;-68
2023/04/22 03:56:49;;;;;;;1.58;1.00;;;;;;;13.43;54.18;100423.59;5042205;28;20044;-68
2023/04/22 03:59:16;;;;;;;2.67;0.93;;;;;;;13.42;54.31;100413.19;5048685;28;20413;-68
2023/04/22 04:01:45;;;;;;;0.93;0.73;;;;;;;13.31;54.25;100409.66;5049257;28;20029;-68
2023/04/22 04:04:11;;;;;;;1.42;0.93;;;;;;;13.32;54.50;100411.97;5038436;28;20029;-68
2023/04/22 04:06:43;;;;;;;1.48;1.38;;;;;;;13.27;54.70;100403.44;5017454;28;20543;-68
2023/04/22 04:09:08;;;;;;;1.25;1.08;;;;;;;13.28;54.33;100404.97;5050549;28;20041;-68
2023/04/22 04:11:34;;;;;;;0.82;0.70;;;;;;;13.34;54.94;100398.06;5052659;28;20017;-68
2023/04/22 04:14:00;;;;;;;1.67;1.00;;;;;;;13.45;54.62;100404.31;5049524;28;20063;-68
2023/04/22 04:16:31;;;;;;;3.15;0.80;;;;;;;13.40;55.02;100393.84;5052674;28;20033;-68
2023/04/22 04:19:04;;;;;;;1.60;1.17;;;;;;;13.34;54.83;100392.66;5053069;28;20128;-68
2023/04/22 04:21:32;;;;;;;0.93;0.70;;;;;;;13.34;54.97;100398.06;5048496;28;20032;-68
2023/04/22 04:23:58;;;;;;;1.20;0.80;;;;;;;13.36;54.89;100390.34;5048909;28;20552;-68
2023/04/22 04:26:28;;;;;;;4.05;1.00;;;;;;;13.39;55.03;100393.06;5037558;28;20021;-68
2023/04/22 04:29:01;;;;;;;1.75;1.00;;;;;;;13.28;55.32;100391.47;5051954;28;20032;-68
2023/04/22 04:31:27;;;;;;;1.48;1.08;;;;;;;13.25;55.47;100397.63;5052614;28;20021;-68
2023/04/22 04:33:56;;;;;;;1.85;1.25;;;;;;;13.32;55.63;100395.75;5043576;28;20033;-68
2023/04/22 04:36:27;;;;;;;2.90;1.48;;;;;;;13.30;55.42;100392.63;5030190;28;20049;-68
2023/04/22 04:38:55;;;;;;;1.85;1.05;;;;;;;13.29;55.45;100388.41;5016001;28;20044;-68
2023/04/22 04:41:22;;;;;;;3.63;1.52;;;;;;;13.38;55.72;100382.63;5030122;28;20029;-70
2023/04/22 04:43:49;;;;;;;2.55;1.08;;;;;;;13.37;55.34;100381.88;5026294;28;20076;-68
2023/04/22 04:46:23;;;;;;;4.30;1.27;;;;;;;13.31;55.53;100383.38;5010818;28;20035;-68
2023/04/22 04:48:50;;;;;;;2.28;0.95;;;;;;;13.34;55.28;100365.59;5041744;28;20478;-68
2023/04/22 04:51:16;;;;;;;1.63;1.20;;;;;;;13.37;55.71;100372.97;5024070;28;20037;-68
2023/04/22 04:53:48;;;;;;;0.85;0.70;;;;;;;13.41;55.12;100373.78;5028093;28;20165;-68
2023/04/22 04:56:14;;;;;;;1.98;0.93;;;;;;;13.45;55.50;100367.19;5031866;28;20029;-68
2023/04/22 04:58:40;;;;;;;2.45;1.35;;;;;;;13.12;56.61;100375.56;5031800;28;20029;-68
2023/04/22 05:01:14;;;;;;;1.40;0.88;;;;;;;13.18;56.15;100374.03;5029500;28;20035;-68
2023/04/22 05:03:41;;;;;;;1.40;0.70;;;;;;;13.29;56.40;100369.47;5022737;28;20029;-68
2023/04/22 05:06:07;;;;;;;2.45;1.08;;;;;;;13.39;55.78;100370.66;5028465;28;20489;-68
2023/04/22 05:08:35;;;;;;;1.15;0.95;;;;;;;13.43;56.16;100371.47;5032277;28;20037;-68
2023/04/22 05:11:05;;;;;;;1.30;0.75;;;;;;;13.57;55.29;100366.06;5039256;28;20124;-70
2023/04/22 05:13:31;;;;;;;2.28;1.48;;;;;;;13.52;55.64;100367.25;5030705;28;20113;-70
2023/04/22 05:15:58;;;;;;;0.70;0.70;;;;;;;13.45;56.25;100369.91;5015792;28;20018;-68
2023/04/22 05:18:24;;;;;;;1.95;1.25;;;;;;;13.62;55.67;100381.19;5048272;28;20086;-68
2023/04/22 05:20:50;;;;;;;1.52;0.85;;;;;;;13.68;55.93;100376.94;5035966;28;20156;-68
2023/04/22 05:23:18;;;;;;;2.05;1.00;;;;;;;13.86;54.87;100381.25;5025935;28;20037;-68
2023/04/22 05:25:44;;;;;;;0.70;0.70;;;;;;;13.73;55.35;100366.53;5032551;28;20029;-69
2023/04/22 05:28:11;;;;;;;1.48;1.10;;;;;;;13.84;55.38;100374.69;5031185;28;20065;-69
2023/04/22 05:30:48;;;;;;;3.60;1.00;;;;;;;13.94;54.79;100360.38;5029739;28;20808;-69
2023/04/22 05:33:14;;;;;;;1.30;0.85;;;;;;;13.96;55.09;100369.66;5029910;28;20037;-69
2023/04/22 05:35:39;;;;;;;1.58;0.98;;;;;;;14.08;54.79;100371.25;5023251;28;20025;-69
2023/04/22 05:38:06;;;;;;;1.17;0.95;;;;;;;14.14;54.82;100372.41;5026781;28;20033;-69
2023/04/22 05:40:33;;;;;;;1.33;1.08;;;;;;;14.23;54.83;100368.16;5013175;28;20039;-69
2023/04/22 05:42:59;;;;;;;1.10;0.98;;;;;;;14.34;54.30;100358.13;5030246;28;20437;-69
2023/04/22 05:45:25;;;;;;;3.65;1.23;;;;;;;14.43;54.05;100346.91;5025619;28;20052;-69
2023/04/22 05:47:51;;;;;;;0.90;0.90;;;;;;;14.57;54.35;100348.84;5024706;28;20485;-69
2023/04/22 05:50:17;;;;;;;1.02;0.90;;;;;;;14.78;53.76;100359.66;5029867;28;20560;-69
2023/04/22 05:52:51;;;;;;;0.68;0.63;;;;;;;14.66;53.48;100360.84;5025699;28;20474;-69
2023/04/22 05:55:17;;;;;;;1.83;0.77;;;;;;;14.96;53.26;100365.81;5027838;28;20030;-69
2023/04/22 05:57:44;;;;;;;1.52;0.70;;;;;;;15.14;53.04;100363.81;5012353;28;20095;-69
2023/04/22 06:00:41;;;;;;;2.00;1.13;;;;;;;15.21;52.54;100356.44;5022812;28;20563;-69
2023/04/22 06:03:22;;;;;;;2.03;0.77;;;;;;;15.30;52.54;100369.59;5040007;28;20040;-69
2023/04/22 06:05:48;;;;;;;2.35;1.15;;;;;;;15.16;52.72;100353.34;5022616;28;20646;-69
2023/04/22 06:08:13;;;;;;;0.60;0.60;;;;;;;15.36;52.47;100355.22;5028740;28;20041;-69
2023/04/22 06:10:41;;;;;;;1.35;1.05;;;;;;;15.66;52.15;100353.97;5035750;28;20029;-69
2023/04/22 06:13:08;;;;;;;0.95;0.65;;;;;;;15.73;52.03;100354.69;5038047;28;20044;-69
2023/04/22 06:15:34;;;;;;;5.40;1.40;;;;;;;15.78;52.39;100346.13;5029444;28;20022;-69
2023/04/22 06:18:00;;;;;;;2.97;1.13;;;;;;;15.93;52.25;100350.28;5037170;28;20021;-69
2023/04/22 06:20:26;;;;;;;2.50;1.08;;;;;;;16.11;51.62;100348.25;5036399;28;20047;-69
2023/04/22 06:22:51;;;;;;;1.13;0.82;;;;;;;16.22;51.50;100362.50;5012678;28;20124;-69
2023/04/22 06:25:18;;;;;;;1.00;0.85;;;;;;;16.35;50.38;100362.81;5027541;28;20033;-70
2023/04/22 06:27:43;;;;;;;1.73;0.90;;;;;;;16.19;51.11;100349.72;5029622;28;20507;-69
2023/04/22 06:30:10;;;;;;;7.25;1.17;;;;;;;16.22;50.80;100345.41;5027918;28;20498;-69
2023/04/22 06:32:37;;;;;;;2.33;0.88;;;;;;;16.38;50.59;100347.63;5024794;28;20040;-69
2023/04/22 06:35:02;;;;;;;1.73;0.80;;;;;;;16.48;51.00;100347.59;5028209;28;20029;-69
2023/04/22 06:37:28;;;;;;;0.98;0.80;;;;;;;16.66;51.11;100350.94;5024055;28;20065;-69
2023/04/22 06:39:53;;;;;;;1.92;0.88;;;;;;;16.82;50.85;100347.66;5025225;28;20034;-69
2023/04/22 06:42:41;;;;;;;2.53;1.38;;;;;;;16.96;49.53;100342.84;5020729;28;20042;-69
2023/04/22 06:45:45;;;;;;;1.63;1.10;;;;;;;17.02;51.00;100343.16;4984154;28;20034;-69
2023/04/22 06:48:23;;;;;;;1.50;1.08;;;;;;;17.20;50.44;100345.69;4972143;28;20108;-69
2023/04/22 06:51:07;;;;;;;1.52;1.27;;;;;;;17.39;50.18;100340.38;5005659;28;20045;-69
2023/04/22 06:53:32;;;;;;;1.60;0.85;;;;;;;17.21;50.06;100347.25;5028407;28;20541;-69
2023/04/22 06:55:57;;;;;;;1.40;1.00;;;;;;;17.58;49.49;100350.66;4996855;28;20049;-70
2023/04/22 06:58:23;;;;;;;1.15;0.88;;;;;;;17.74;48.49;100348.13;5014457;28;20530;-69
2023/04/22 07:00:48;;;;;;;1.45;0.82;;;;;;;17.78;48.64;100342.63;5017520;28;20072;-69
2023/04/22 07:03:14;;;;;;;1.27;1.05;;;;;;;17.97;48.44;100355.56;5010123;28;20034;-69
2023/04/22 07:05:40;;;;;;;1.50;0.90;;;;;;;18.15;48.61;100349.84;5010189;28;20029;-69
2023/04/22 07:08:07;;;;;;;2.40;1.00;;;;;;;18.20;48.73;100349.38;5017762;28;20039;-69
2023/04/22 07:10:32;;;;;;;1.17;0.95;;;;;;;18.20;48.18;100341.97;5031196;28;20026;-69
2023/04/22 07:13:26;;;;;;;1.48;0.90;;;;;;;18.46;48.14;100345.88;5022640;28;20029;-70
2023/04/22 07:15:51;;;;;;;1.38;0.73;;;;;;;18.65;47.85;100345.16;5034669;28;20033;-70
2023/04/22 07:18:17;;;;;;;1.65;1.02;;;;;;;18.62;47.41;100346.75;5037923;28;20116;-70
2023/04/22 07:20:42;;;;;;;2.15;1.30;;;;;;;18.83;48.15;100334.69;5039897;28;20037;-70
2023/04/22 07:23:11;;;;;;;1.55;0.90;;;;;;;18.70;47.04;100344.66;5050686;28;20377;-69
2023/04/22 07:25:36;;;;;;;1.70;1.10;;;;;;;19.01;46.95;100343.31;5029001;28;20120;-69
2023/04/22 07:28:02;;;;;;;1.92;1.30;;;;;;;19.01;47.08;100350.75;5049664;28;20151;-70
2023/04/22 07:30:27;;;;;;;2.17;1.20;;;;;;;18.99;46.59;100353.88;5049542;28;20485;-70
2023/04/22 07:32:52;;;;;;;2.67;1.23;;;;;;;18.88;47.10;100358.78;5037335;28;20755;-70
2023/04/22 07:35:18;;;;;;;1.58;0.88;;;;;;;19.05;46.71;100346.75;5045697;28;20025;-70
2023/04/22 07:37:46;;;;;;;3.08;1.20;;;;;;;19.13;46.43;100344.63;5037022;28;20041;-70
2023/04/22 07:40:12;;;;;;;1.40;0.85;;;;;;;19.21;46.65;100338.63;5037182;28;20048;-70
2023/04/22 07:42:38;;;;;;;2.97;1.55;;;;;;;19.37;46.37;100344.19;5053550;28;20128;-70
2023/04/22 07:45:05;;;;;;;2.35;1.30;;;;;;;19.39;46.39;100338.31;5053702;28;20159;-70
2023/04/22 07:47:31;;;;;;;1.55;1.23;;;;;;;19.40;46.56;100326.16;5051032;28;20047;-69
2023/04/22 07:49:56;;;;;;;1.15;0.95;;;;;;;19.41;46.95;100333.97;5054482;28;20481;-70
2023/04/22 07:52:21;;;;;;;3.05;1.58;;;;;;;19.65;45.79;100327.19;5053132;28;20036;-70
2023/04/22 07:54:47;;;;;;;1.88;0.98;;;;;;;19.82;47.21;100327.22;5037492;28;20026;-70
2023/04/22 07:57:12;;;;;;;2.03;0.98;;;;;;;19.57;46.04;100317.59;5039407;28;20042;-70
2023/04/22 07:59:38;;;;;;;1.77;1.30;;;;;;;19.92;46.70;100316.03;5014663;28;20538;-70
2023/04/22 08:02:03;;;;;;;2.08;1.20;;;;;;;19.59;46.80;100315.22;5024748;28;20033;-70
2023/04/22 08:04:29;;;;;;;2.72;1.27;;;;;;;20.13;46.25;100320.25;5057216;22;20059;-67
2023/04/22 08:06:55;;;;;;;1.25;1.00;;;;;;;19.94;45.92;100321.09;5067532;28;20048;-67
2023/04/22 08:09:20;;;;;;;1.20;0.90;;;;;;;19.93;46.44;100323.03;5064515;28;20017;-67
2023/04/22 08:11:46;;;;;;;1.85;1.05;;;;;;;20.42;47.35;100327.31;5065569;28;20082;-67
2023/04/22 08:14:11;;;;;;;2.55;1.23;;;;;;;20.65;45.91;100315.41;5062897;28;20029;-67
2023/04/22 08:16:38;;;;;;;2.03;0.80;;;;;;;20.65;45.06;100327.13;5051766;28;20508;-68
2023/04/22 08:19:03;;;;;;;1.83;1.00;;;;;;;20.42;45.98;100299.97;5061163;28;20431;-68
2023/04/22 08:21:30;;;;;;;1.85;1.25;;;;;;;20.36;45.97;100300.94;5058873;28;20093;-67
2023/04/22 08:23:55;;;;;;;1.95;1.10;;;;;;;20.72;45.46;100301.53;5055054;28;20029;-68
2023/04/22 08:26:21;;;;;;;1.52;1.00;;;;;;;20.85;45.17;100307.81;5062812;28;20110;-67
2023/04/22 08:28:47;;;;;;;2.05;1.15;;;;;;;20.79;45.80;100301.34;5056680;28;20033;-68
2023/04/22 08:31:12;;;;;;;1.35;0.93;;;;;;;21.02;44.97;100309.31;5068659;28;20024;-67
2023/04/22 08:33:40;;;;;;;1.73;1.25;;;;;;;20.76;45.55;100304.94;5055781;28;20488;-68
2023/04/22 08:36:07;;;;;;;2.63;1.73;;;;;;;20.38;45.48;100302.03;5058568;28;20052;-68
2023/04/22 08:38:33;;;;;;;1.90;1.20;;;;;;;20.76;46.18;100298.69;5061401;28;20039;-68
2023/04/22 08:40:59;;;;;;;1.25;1.05;;;;;;;21.21;44.98;100302.94;5086618;28;20113;-67
2023/04/22 08:43:24;;;;;;;1.48;1.15;;;;;;;21.24;44.42;100293.06;5072651;28;20044;-68
2023/04/22 08:45:51;;;;;;;1.77;1.02;;;;;;;21.34;44.47;100292.75;5060111;28;20032;-67
2023/04/22 08:48:17;;;;;;;4.70;1.25;;;;;;;21.65;44.36;100308.66;5063093;28;20040;-68
2023/04/22 08:50:43;;;;;;;0.75;0.75;;;;;;;21.56;44.29;100293.63;5043850;28;20063;-68
2023/04/22 08:53:08;;;;;;;1.38;1.02;;;;;;;21.89;43.92;100296.94;5061781;28;20492;-68
2023/04/22 08:55:35;;;;;;;1.27;0.95;;;;;;;21.90;44.01;100301.25;5057147;28;20055;-67
2023/04/22 08:58:03;;;;;;;3.42;0.90;;;;;;;21.94;43.58;100292.91;5064565;28;20032;-67
2023/04/22 09:00:30;;;;;;;2.00;1.40;;;;;;;22.01;44.15;100295.44;5065638;28;20412;-67
2023/04/22 09:02:59;;;;;;;3.03;1.27;;;;;;;21.95;44.10;100297.19;5061331;28;20556;-67
2023/04/22 09:05:26;;;;;;;1.42;0.93;;;;;;;22.19;44.44;100290.09;5067125;28;20032;-67
2023/04/22 09:07:52;;;;;;;1.38;1.05;;;;;;;22.21;43.76;100296.69;5064022;28;20040;-67
2023/04/22 09:10:18;;;;;;;1.13;0.90;;;;;;;22.65;45.01;100283.09;5062786;28;20129;-67
2023/04/22 09:12:45;;;;;;;1.35;1.15;;;;;;;23.13;42.46;100290.75;5065503;28;20497;-68
2023/04/22 09:15:11;;;;;;;1.55;1.15;;;;;;;23.03;42.64;100305.66;5061709;28;20036;-68
2023/04/22 09:17:37;;;;;;;1.55;0.85;;;;;;;22.78;42.66;100286.53;5062516;28;20058;-67
2023/04/22 09:20:06;;;;;;;1.27;0.90;;;;;;;23.01;43.22;100297.88;5058061;28;20047;-67
2023/04/22 09:22:45;;;;;;;2.30;1.05;;;;;;;23.03;42.51;100292.69;5065362;28;21385;-67
2023/04/22 09:25:16;;;;;;;2.28;1.10;;;;;;;23.03;42.67;100303.69;5069578;28;20083;-67
2023/04/22 09:27:41;;;;;;;1.53;1.20;;;;;;;22.71;43.36;100295.78;5059267;28;20044;-67
2023/04/22 09:30:08;;;;;;;2.30;1.00;;;;;;;22.77;44.09;100299.50;5066595;28;20290;-68
2023/04/22 09:32:34;;;;;;;1.40;1.00;;;;;;;22.93;42.45;100298.56;5056501;28;20028;-67
2023/04/22 09:35:00;;;;;;;1.02;0.85;;;;;;;23.00;42.85;100288.06;5064312;28;20081;-68
2023/04/22 09:37:26;;;;;;;1.13;0.98;;;;;;;23.32;43.05;100294.41;5061124;28;20103;-68
2023/04/22 09:39:53;;;;;;;2.10;1.02;;;;;;;23.70;41.93;100283.88;5058673;28;20429;-68
2023/04/22 09:42:20;;;;;;;1.60;0.98;;;;;;;23.26;42.89;100267.47;5045972;28;20020;-68
2023/04/22 09:44:47;;;;;;;1.38;0.80;;;;;;;23.76;43.45;100265.56;5056932;28;20792;-68
2023/04/22 09:47:13;;;;;;;1.25;0.80;;;;;;;23.55;42.35;100263.66;5061213;28;20041;-68
2023/04/22 09:49:39;;;;;;;2.00;1.00;;;;;;;23.96;41.84;100263.16;5054317;28;20021;-68
2023/04/22 09:52:05;;;;;;;1.50;0.80;;;;;;;24.24;41.05;100264.00;5064224;28;20453;-68
2023/04/22 09:54:30;;;;;;;0.80;0.75;;;;;;;24.53;39.96;100267.84;5060228;28;20032;-68
2023/04/22 09:56:56;;;;;;;0.90;0.65;;;;;;;23.91;40.53;100252.75;5064791;28;20043;-67
2023/04/22 09:59:24;;;;;;;1.55;1.00;;;;;;;24.08;40.50;100259.53;5058742;28;20546;-67
2023/04/22 10:01:52;;;;;;;0.90;0.63;;;;;;;23.78;41.48;100258.38;5066771;28;20116;-68
2023/04/22 10:04:20;;;;;;;1.58;1.27;;;;;;;24.44;40.28;100259.59;5049546;28;20041;-68
2023/04/22 10:06:49;;;;;;;1.50;1.10;;;;;;;24.65;40.31;100247.63;5040241;28;20041;-68
2023/04/22 10:09:19;;;;;;;1.40;0.95;;;;;;;24.71;40.59;100245.03;5053977;28;20083;-67
2023/04/22 10:11:46;;;;;;;0.73;0.63;;;;;;;24.84;40.56;100248.41;5061526;28;20025;-68
2023/04/22 10:14:13;;;;;;;2.08;1.20;;;;;;;25.23;39.26;100249.38;5063118;28;20392;-68
2023/04/22 10:16:40;;;;;;;1.38;1.00;;;;;;;25.51;38.75;100250.84;5065891;28;20469;-67
2023/04/22 10:19:07;;;;;;;4.78;1.40;;;;;;;25.28;38.98;100266.06;5066853;28;20044;-68
2023/04/22 10:21:33;;;;;;;2.15;1.35;;;;;;;25.29;40.02;100244.75;5063987;28;20078;-68
2023/04/22 10:23:59;;;;;;;1.83;0.85;;;;;;;25.66;38.92;100235.91;5065779;28;20044;-67
2023/04/22 10:26:39;;;;;;;1.30;1.00;;;;;;;25.89;39.36;100234.38;5060517;28;20128;-68
2023/04/22 10:29:15;;;;;;;2.40;1.50;;;;;;;26.15;38.99;100223.66;5068024;28;20118;-68
2023/04/22 10:31:42;;;;;;;1.48;0.75;;;;;;;25.90;38.32;100227.63;5062073;28;20033;-68
2023/04/22 10:34:10;;;;;;;1.65;1.00;;;;;;;25.60;38.44;100218.47;5051888;28;20028;-68
2023/04/22 10:36:51;;;;;;;2.33;1.50;;;;;;;25.76;39.35;100218.03;5052701;28;20017;-68
2023/04/22 10:39:17;;;;;;;0.70;0.70;;;;;;;26.20;40.15;100215.47;5059088;28;20497;-68
2023/04/22 10:41:50;;;;;;;2.50;1.10;;;;;;;26.16;38.71;100212.13;5039532;28;20039;-68
2023/04/22 10:44:15;;;;;;;1.35;0.93;;;;;;;26.70;39.95;100203.38;5062656;28;20427;-68
2023/04/22 10:46:51;;;;;;;1.33;1.00;;;;;;;26.71;37.83;100218.72;5063901;28;20035;-67
2023/04/22 10:49:21;;;;;;;0.70;0.70;;;;;;;26.73;37.70;100209.97;5064670;28;20056;-68
2023/04/22 10:51:58;;;;;;;0.90;0.85;;;;;;;26.67;37.19;100215.34;5068665;28;20086;-68
2023/04/22 10:57:09;;;;;;;1.20;0.88;;;;;;;26.43;37.12;100202.84;5052600;28;20067;-68
2023/04/22 10:59:51;;;;;;;1.13;0.80;;;;;;;26.48;37.90;100194.66;5054311;28;20039;-68
2023/04/22 11:02:17;;;;;;;1.65;1.00;;;;;;;26.57;37.81;100191.06;5053489;28;20119;-68
2023/04/22 11:04:43;;;;;;;1.20;0.73;;;;;;;26.86;37.56;100195.84;5050062;28;20137;-68
2023/04/22 11:07:29;;;;;;;1.77;1.10;;;;;;;27.39;37.05;100194.47;5048020;28;20056;-68
2023/04/22 11:10:14;;;;;;;1.60;0.90;;;;;;;27.13;37.77;100198.31;5057444;28;20174;-68
2023/04/22 11:12:42;;;;;;;1.20;0.90;;;;;;;27.47;37.73;100184.53;5056663;28;20028;-68
2023/04/22 11:15:16;;;;;;;0.93;0.70;;;;;;;27.89;37.10;100186.84;5061963;28;20068;-68
2023/04/22 11:17:43;;;;;;;1.20;0.90;;;;;;;27.67;36.79;100178.25;5060479;28;20052;-68
2023/04/22 11:20:10;;;;;;;1.48;1.00;;;;;;;27.46;36.95;100171.94;5059375;28;20028;-68
2023/04/22 11:22:37;;;;;;;3.60;0.90;;;;;;;27.95;36.28;100171.06;5056890;28;20061;-68
2023/04/22 11:25:04;;;;;;;4.32;1.88;;;;;;;27.67;37.23;100162.41;5073629;28;20051;-67
2023/04/22 11:27:30;;;;;;;2.65;1.33;;;;;;;28.19;36.48;100165.31;5057627;28;20033;-68